< < Back
Terminal Aerodrome Forecast


Current Version              Previous Versions:   1  2  3  4  5  6  7  8  9  

Terminal Aerodrome Forecast

656
FTUS44 KOHX 292320
TAFBNA
TAF
KBNA 292320Z 3000/3024 04011KT P6SM SCT250
     FM300100 01004KT P6SM SCT250=

Latest METAR

481
SAUS70 KWBC 010400 RRX
MTRBNA
METAR KBNA 010353Z 00000KT 10SM CLR 22/15 A3001 RMK AO2 SLP156
T02220150


USA.gov is the U.S. government's official web portal to all federal, state and local government web resources and services.